Gaz Unity — HOEJ — position and weather

sailwx.info

Track history (hours):
 
Tides and Currents Weather Stations Pressure Air Temp Water Temp Dewpoint Dewpoint Depression Visibility Wind Speed Wind Dir Waves Ship Positions

Gaz Unity

Last reported at 2016-Jul-28 19:14 UTC. Time now 2016-Jul-28 20:18 UTC.
Position N 36°03' E 015°12'.

; draft 9.8 m.

Type: Ship (hazmat cat C). MMSI: 353956000.

Date/timePositionNaut miles runAvg speedWind from/ knotsBaromVisibWave heightAir tempDewpointWater temp
2016-Jul-28 19:14N 36°03' E 015°12'0 0.4
2016-Jul-28 18:17N 36°03' E 015°12'0 0.4
2016-Jul-28 17:33N 36°04' E 015°11'0 0.4
2016-Jul-28 16:33N 36°04' E 015°11'0 0.3
2016-Jul-28 15:33N 36°04' E 015°11'0 0.3
2016-Jul-28 14:32N 36°04' E 015°11'0 0.3
2016-Jul-28 13:33N 36°05' E 015°11'0 0.5
2016-Jul-28 12:30N 36°05' E 015°10'0 0.5
2016-Jul-28 11:33N 36°06' E 015°10'1 0.5
2016-Jul-28 10:06N 36°07' E 015°10'0 0.5
2016-Jul-28 09:30N 36°07' E 015°10'0 0.4
2016-Jul-28 08:32N 36°07' E 015°10'5 5.1
2016-Jul-28 07:33N 36°03' E 015°06'4 3.5
2016-Jul-28 06:30N 35°59' E 015°04'0 0.2
2016-Jul-28 05:30N 35°59' E 015°04'0 0.0
2016-Jul-28 04:30N 35°59' E 015°04'0 0.0
2016-Jul-28 03:15N 35°59' E 015°04'0 0.1
2016-Jul-28 02:33N 35°59' E 015°04'0 0.1
2016-Jul-28 01:33N 35°59' E 015°04'0 0.1
2016-Jul-28 00:33N 35°59' E 015°04'0 0.0
2016-Jul-27 23:33N 35°59' E 015°04'0 0.0
2016-Jul-27 22:30N 35°59' E 015°04'0 0.0
2016-Jul-27 21:33N 35°59' E 015°04'0 0.0
2016-Jul-27 20:33N 35°59' E 015°04'0 0.0
2016-Jul-27 19:33N 35°59' E 015°04'0 0.0
2016-Jul-27 18:33N 35°59' E 015°04'0 0.0
2016-Jul-27 17:33N 35°59' E 015°04'0 0.0
2016-Jul-27 16:30N 35°59' E 015°04'0 0.0
2016-Jul-27 15:33N 35°59' E 015°04'0 0.0
2016-Jul-27 14:33N 35°59' E 015°04'0 0.0
2016-Jul-27 13:33N 35°59' E 015°04'0 0.0
2016-Jul-27 12:33N 35°59' E 015°04'0 0.1
2016-Jul-27 11:33N 35°59' E 015°04'0 0.1
2016-Jul-27 10:30N 35°59' E 015°04'0 0.0
2016-Jul-27 08:09N 35°59' E 015°04'10 1.3
2016-Jul-27 00:11N 35°49' E 015°02'0 0.0
2016-Jul-26 23:26N 35°49' E 015°02'0 0.1
2016-Jul-26 22:32N 35°49' E 015°02'0 0.0
2016-Jul-26 16:26N 35°49' E 015°02'0 0.1
2016-Jul-26 14:32N 35°49' E 015°02'0 0.1
2016-Jul-26 13:32N 35°49' E 015°02'0 0.0
2016-Jul-26 12:32N 35°49' E 015°02'0 0.0
2016-Jul-26 11:32N 35°49' E 015°02'0 0.0
2016-Jul-26 10:32N 35°49' E 015°02'0 0.0
2016-Jul-26 09:29N 35°49' E 015°02'0 0.0
2016-Jul-26 08:17N 35°49' E 015°02'0 0.0
2016-Jul-25 12:26N 35°49' E 015°02'0 0.0
2016-Jul-25 11:23N 35°49' E 015°02'0 0.0
2016-Jul-25 10:26N 35°49' E 015°02'0 0.0
2016-Jul-25 09:32N 35°49' E 015°02'0 0.0
2016-Jul-25 08:32N 35°49' E 015°02'0 0.0
2016-Jul-25 07:32N 35°49' E 015°02'0 0.0
2016-Jul-25 06:32N 35°49' E 015°02'0 0.0
2016-Jul-25 05:26N 35°49' E 015°02'0 0.0
2016-Jul-25 04:29N 35°49' E 015°02'0 0.0
2016-Jul-25 03:32N 35°49' E 015°02'0 0.1
2016-Jul-25 02:29N 35°49' E 015°02'0 0.0
2016-Jul-24 22:08N 35°50' E 015°02'0 0.1
2016-Jul-24 21:26N 35°50' E 015°02'0 0.1
2016-Jul-24 20:32N 35°50' E 015°02'0 0.1
2016-Jul-24 19:26N 35°50' E 015°02'0 0.1
2016-Jul-24 18:14N 35°49' E 015°02'0 0.1
2016-Jul-24 17:32N 35°49' E 015°02'0 0.1
2016-Jul-24 16:05N 35°49' E 015°02'0 0.1
2016-Jul-24 15:29N 35°49' E 015°02'0 0.0
2016-Jul-24 13:20N 35°49' E 015°02'0 0.1
2016-Jul-24 12:29N 35°49' E 015°02'0 0.0
2016-Jul-24 11:08N 35°49' E 015°02'0 0.0
2016-Jul-24 08:26N 35°49' E 015°02'0 0.0
2016-Jul-24 07:29N 35°49' E 015°02'0 0.0
2016-Jul-24 06:29N 35°49' E 015°02'0 0.0
2016-Jul-24 03:29N 35°49' E 015°02'0 0.0
2016-Jul-24 02:32N 35°49' E 015°02'0 0.0
2016-Jul-24 01:08N 35°50' E 015°02'0 0.1
2016-Jul-24 00:32N 35°50' E 015°02'0 0.1
2016-Jul-23 23:11N 35°50' E 015°02'0 0.1
2016-Jul-23 22:32N 35°50' E 015°02'0 0.1
2016-Jul-23 21:32N 35°50' E 015°02'0 0.0
2016-Jul-23 20:23N 35°49' E 015°02'0 0.0
2016-Jul-23 17:26N 35°49' E 015°02'0 0.0
2016-Jul-23 14:29N 35°49' E 015°02'0 0.0
2016-Jul-23 13:26N 35°49' E 015°02'0 0.0
2016-Jul-23 11:23N 35°49' E 015°02'0 0.1
2016-Jul-23 10:32N 35°49' E 015°02'0 0.1
2016-Jul-23 09:29N 35°49' E 015°02'0 0.0
2016-Jul-23 08:32N 35°49' E 015°02'0 0.0
2016-Jul-23 07:32N 35°49' E 015°02'0 0.0
2016-Jul-23 06:29N 35°49' E 015°02'0 0.0
2016-Jul-23 04:32N 35°49' E 015°02'0 0.0
2016-Jul-23 03:29N 35°49' E 015°02'0 0.0
2016-Jul-23 02:32N 35°49' E 015°02'0 0.0
2016-Jul-23 01:32N 35°49' E 015°02'0 0.0
2016-Jul-23 00:29N 35°50' E 015°02'0 0.0
2016-Jul-22 23:32N 35°50' E 015°02'0 0.1
2016-Jul-22 22:32N 35°50' E 015°02'0 0.1
2016-Jul-22 21:18N 35°49' E 015°02'0 0.1
2016-Jul-22 20:33N 35°49' E 015°02'0 0.0
2016-Jul-22 19:33N 35°49' E 015°02'0 0.1
2016-Jul-22 18:33N 35°49' E 015°02'0 0.0
2016-Jul-22 17:33N 35°49' E 015°02'0 0.0
2016-Jul-22 13:18N 35°49' E 015°02'0 0.0
2016-Jul-22 12:33N 35°49' E 015°02'0 0.0
2016-Jul-22 11:33N 35°49' E 015°02'0 0.0
2016-Jul-22 10:33N 35°49' E 015°02'7 0.5
2016-Jul-21 19:33N 35°56' E 015°04'0 0.3
2016-Jul-21 18:33N 35°56' E 015°04'0 0.2
2016-Jul-21 17:33N 35°57' E 015°04'0 0.1
2016-Jul-21 16:33N 35°57' E 015°04'0 0.0
2016-Jul-21 15:34N 35°57' E 015°04'0 0.2
2016-Jul-21 14:33N 35°56' E 015°04'0 0.3
2016-Jul-21 13:33N 35°56' E 015°04'1 0.4
2016-Jul-21 11:21N 35°57' E 015°05'0 0.3
2016-Jul-21 10:32N 35°57' E 015°05'0 0.3
2016-Jul-21 09:33N 35°57' E 015°05'0 0.2
2016-Jul-21 08:33N 35°58' E 015°05'0 0.2
2016-Jul-21 07:34N 35°58' E 015°05'4 3.9
2016-Jul-21 06:34N 35°55' E 015°02'4 3.7
2016-Jul-21 05:33N 35°52' E 014°59'0 0.1
2016-Jul-21 04:33N 35°52' E 014°59'0 0.0
2016-Jul-21 03:27N 35°52' E 014°59'0 0.0
2016-Jul-21 02:30N 35°52' E 014°59'0 0.0
2016-Jul-21 00:33N 35°52' E 014°59'0 0.0
2016-Jul-20 23:30N 35°52' E 014°59'0 0.0
2016-Jul-20 22:27N 35°52' E 014°59'0 0.0
2016-Jul-20 21:33N 35°52' E 014°59'0 0.1
2016-Jul-20 20:33N 35°52' E 014°59'0 0.0
2016-Jul-20 16:33N 35°52' E 014°59'0 0.1
2016-Jul-20 14:27N 35°52' E 014°59'0 0.0
2016-Jul-19 18:09N 35°52' E 014°59'0 0.0
2016-Jul-19 14:33N 35°52' E 014°59'0 0.1
2016-Jul-19 13:33N 35°52' E 014°59'0 0.0
2016-Jul-19 12:30N 35°52' E 014°59'0 0.0
2016-Jul-19 11:30N 35°52' E 014°59'0 0.0
2016-Jul-19 10:33N 35°52' E 014°59'0 0.0
2016-Jul-19 09:33N 35°52' E 014°59'0 0.0
2016-Jul-19 08:33N 35°52' E 014°59'3 3.1
2016-Jul-19 07:33N 35°52' E 015°03'7 2.3
2016-Jul-19 04:34N 35°54' E 015°11'1 1.1
2016-Jul-19 03:34N 35°55' E 015°11'1 1.0
2016-Jul-19 02:33N 35°55' E 015°10'1 0.9
2016-Jul-19 01:34N 35°56' E 015°09'1 0.8
2016-Jul-19 00:33N 35°57' E 015°09'1 0.7
2016-Jul-18 23:32N 35°57' E 015°08'1 0.5
2016-Jul-18 22:10N 35°58' E 015°07'  
Track history (hours):
 
Tides and Currents Weather Stations Pressure Air Temp Water Temp Dewpoint Dewpoint Depression Visibility Wind Speed Wind Dir Waves Ship Positions

Gaz Unity

Last reported at 2016-Jul-28 19:14 UTC. Time now 2016-Jul-28 20:18 UTC.
Position N 36°03' E 015°12'.

; draft 9.8 m.

Type: Ship (hazmat cat C). MMSI: 353956000.

Date/timePositionNaut miles runAvg speedWind from/ knotsBaromVisibWave heightAir tempDewpointWater temp
2016-Jul-28 19:14N 36°03' E 015°12'0 0.4
2016-Jul-28 18:17N 36°03' E 015°12'0 0.4
2016-Jul-28 17:33N 36°04' E 015°11'0 0.4
2016-Jul-28 16:33N 36°04' E 015°11'0 0.3
2016-Jul-28 15:33N 36°04' E 015°11'0 0.3
2016-Jul-28 14:32N 36°04' E 015°11'0 0.3
2016-Jul-28 13:33N 36°05' E 015°11'0 0.5
2016-Jul-28 12:30N 36°05' E 015°10'0 0.5
2016-Jul-28 11:33N 36°06' E 015°10'1 0.5
2016-Jul-28 10:06N 36°07' E 015°10'0 0.5
2016-Jul-28 09:30N 36°07' E 015°10'0 0.4
2016-Jul-28 08:32N 36°07' E 015°10'5 5.1
2016-Jul-28 07:33N 36°03' E 015°06'4 3.5
2016-Jul-28 06:30N 35°59' E 015°04'0 0.2
2016-Jul-28 05:30N 35°59' E 015°04'0 0.0
2016-Jul-28 04:30N 35°59' E 015°04'0 0.0
2016-Jul-28 03:15N 35°59' E 015°04'0 0.1
2016-Jul-28 02:33N 35°59' E 015°04'0 0.1
2016-Jul-28 01:33N 35°59' E 015°04'0 0.1
2016-Jul-28 00:33N 35°59' E 015°04'0 0.0
2016-Jul-27 23:33N 35°59' E 015°04'0 0.0
2016-Jul-27 22:30N 35°59' E 015°04'0 0.0
2016-Jul-27 21:33N 35°59' E 015°04'0 0.0
2016-Jul-27 20:33N 35°59' E 015°04'0 0.0
2016-Jul-27 19:33N 35°59' E 015°04'0 0.0
2016-Jul-27 18:33N 35°59' E 015°04'0 0.0
2016-Jul-27 17:33N 35°59' E 015°04'0 0.0
2016-Jul-27 16:30N 35°59' E 015°04'0 0.0
2016-Jul-27 15:33N 35°59' E 015°04'0 0.0
2016-Jul-27 14:33N 35°59' E 015°04'0 0.0
2016-Jul-27 13:33N 35°59' E 015°04'0 0.0
2016-Jul-27 12:33N 35°59' E 015°04'0 0.1
2016-Jul-27 11:33N 35°59' E 015°04'0 0.1
2016-Jul-27 10:30N 35°59' E 015°04'0 0.0
2016-Jul-27 08:09N 35°59' E 015°04'10 1.3
2016-Jul-27 00:11N 35°49' E 015°02'0 0.0
2016-Jul-26 23:26N 35°49' E 015°02'0 0.1
2016-Jul-26 22:32N 35°49' E 015°02'0 0.0
2016-Jul-26 16:26N 35°49' E 015°02'0 0.1
2016-Jul-26 14:32N 35°49' E 015°02'0 0.1
2016-Jul-26 13:32N 35°49' E 015°02'0 0.0
2016-Jul-26 12:32N 35°49' E 015°02'0 0.0
2016-Jul-26 11:32N 35°49' E 015°02'0 0.0
2016-Jul-26 10:32N 35°49' E 015°02'0 0.0
2016-Jul-26 09:29N 35°49' E 015°02'0 0.0
2016-Jul-26 08:17N 35°49' E 015°02'0 0.0
2016-Jul-25 12:26N 35°49' E 015°02'0 0.0
2016-Jul-25 11:23N 35°49' E 015°02'0 0.0
2016-Jul-25 10:26N 35°49' E 015°02'0 0.0
2016-Jul-25 09:32N 35°49' E 015°02'0 0.0
2016-Jul-25 08:32N 35°49' E 015°02'0 0.0
2016-Jul-25 07:32N 35°49' E 015°02'0 0.0
2016-Jul-25 06:32N 35°49' E 015°02'0 0.0
2016-Jul-25 05:26N 35°49' E 015°02'0 0.0
2016-Jul-25 04:29N 35°49' E 015°02'0 0.0
2016-Jul-25 03:32N 35°49' E 015°02'0 0.1
2016-Jul-25 02:29N 35°49' E 015°02'0 0.0
2016-Jul-24 22:08N 35°50' E 015°02'0 0.1
2016-Jul-24 21:26N 35°50' E 015°02'0 0.1
2016-Jul-24 20:32N 35°50' E 015°02'0 0.1
2016-Jul-24 19:26N 35°50' E 015°02'0 0.1
2016-Jul-24 18:14N 35°49' E 015°02'0 0.1
2016-Jul-24 17:32N 35°49' E 015°02'0 0.1
2016-Jul-24 16:05N 35°49' E 015°02'0 0.1
2016-Jul-24 15:29N 35°49' E 015°02'0 0.0
2016-Jul-24 13:20N 35°49' E 015°02'0 0.1
2016-Jul-24 12:29N 35°49' E 015°02'0 0.0
2016-Jul-24 11:08N 35°49' E 015°02'0 0.0
2016-Jul-24 08:26N 35°49' E 015°02'0 0.0
2016-Jul-24 07:29N 35°49' E 015°02'0 0.0
2016-Jul-24 06:29N 35°49' E 015°02'0 0.0
2016-Jul-24 03:29N 35°49' E 015°02'0 0.0
2016-Jul-24 02:32N 35°49' E 015°02'0 0.0
2016-Jul-24 01:08N 35°50' E 015°02'0 0.1
2016-Jul-24 00:32N 35°50' E 015°02'0 0.1
2016-Jul-23 23:11N 35°50' E 015°02'0 0.1
2016-Jul-23 22:32N 35°50' E 015°02'0 0.1
2016-Jul-23 21:32N 35°50' E 015°02'0 0.0
2016-Jul-23 20:23N 35°49' E 015°02'0 0.0
2016-Jul-23 17:26N 35°49' E 015°02'0 0.0
2016-Jul-23 14:29N 35°49' E 015°02'0 0.0
2016-Jul-23 13:26N 35°49' E 015°02'0 0.0
2016-Jul-23 11:23N 35°49' E 015°02'0 0.1
2016-Jul-23 10:32N 35°49' E 015°02'0 0.1
2016-Jul-23 09:29N 35°49' E 015°02'0 0.0
2016-Jul-23 08:32N 35°49' E 015°02'0 0.0
2016-Jul-23 07:32N 35°49' E 015°02'0 0.0
2016-Jul-23 06:29N 35°49' E 015°02'0 0.0
2016-Jul-23 04:32N 35°49' E 015°02'0 0.0
2016-Jul-23 03:29N 35°49' E 015°02'0 0.0
2016-Jul-23 02:32N 35°49' E 015°02'0 0.0
2016-Jul-23 01:32N 35°49' E 015°02'0 0.0
2016-Jul-23 00:29N 35°50' E 015°02'0 0.0
2016-Jul-22 23:32N 35°50' E 015°02'0 0.1
2016-Jul-22 22:32N 35°50' E 015°02'0 0.1
2016-Jul-22 21:18N 35°49' E 015°02'0 0.1
2016-Jul-22 20:33N 35°49' E 015°02'0 0.0
2016-Jul-22 19:33N 35°49' E 015°02'0 0.1
2016-Jul-22 18:33N 35°49' E 015°02'0 0.0
2016-Jul-22 17:33N 35°49' E 015°02'0 0.0
2016-Jul-22 13:18N 35°49' E 015°02'0 0.0
2016-Jul-22 12:33N 35°49' E 015°02'0 0.0
2016-Jul-22 11:33N 35°49' E 015°02'0 0.0
2016-Jul-22 10:33N 35°49' E 015°02'7 0.5
2016-Jul-21 19:33N 35°56' E 015°04'0 0.3
2016-Jul-21 18:33N 35°56' E 015°04'0 0.2
2016-Jul-21 17:33N 35°57' E 015°04'0 0.1
2016-Jul-21 16:33N 35°57' E 015°04'0 0.0
2016-Jul-21 15:34N 35°57' E 015°04'0 0.2
2016-Jul-21 14:33N 35°56' E 015°04'0 0.3
2016-Jul-21 13:33N 35°56' E 015°04'1 0.4
2016-Jul-21 11:21N 35°57' E 015°05'0 0.3
2016-Jul-21 10:32N 35°57' E 015°05'0 0.3
2016-Jul-21 09:33N 35°57' E 015°05'0 0.2
2016-Jul-21 08:33N 35°58' E 015°05'0 0.2
2016-Jul-21 07:34N 35°58' E 015°05'4 3.9
2016-Jul-21 06:34N 35°55' E 015°02'4 3.7
2016-Jul-21 05:33N 35°52' E 014°59'0 0.1
2016-Jul-21 04:33N 35°52' E 014°59'0 0.0
2016-Jul-21 03:27N 35°52' E 014°59'0 0.0
2016-Jul-21 02:30N 35°52' E 014°59'0 0.0
2016-Jul-21 00:33N 35°52' E 014°59'0 0.0
2016-Jul-20 23:30N 35°52' E 014°59'0 0.0
2016-Jul-20 22:27N 35°52' E 014°59'0 0.0
2016-Jul-20 21:33N 35°52' E 014°59'0 0.1
2016-Jul-20 20:33N 35°52' E 014°59'0 0.0
2016-Jul-20 16:33N 35°52' E 014°59'0 0.1
2016-Jul-20 14:27N 35°52' E 014°59'0 0.0
2016-Jul-19 18:09N 35°52' E 014°59'0 0.0
2016-Jul-19 14:33N 35°52' E 014°59'0 0.1
2016-Jul-19 13:33N 35°52' E 014°59'0 0.0
2016-Jul-19 12:30N 35°52' E 014°59'0 0.0
2016-Jul-19 11:30N 35°52' E 014°59'0 0.0
2016-Jul-19 10:33N 35°52' E 014°59'0 0.0
2016-Jul-19 09:33N 35°52' E 014°59'0 0.0
2016-Jul-19 08:33N 35°52' E 014°59'3 3.1
2016-Jul-19 07:33N 35°52' E 015°03'7 2.3
2016-Jul-19 04:34N 35°54' E 015°11'1 1.1
2016-Jul-19 03:34N 35°55' E 015°11'1 1.0
2016-Jul-19 02:33N 35°55' E 015°10'1 0.9
2016-Jul-19 01:34N 35°56' E 015°09'1 0.8
2016-Jul-19 00:33N 35°57' E 015°09'1 0.7
2016-Jul-18 23:32N 35°57' E 015°08'1 0.5
2016-Jul-18 22:10N 35°58' E 015°07'  

Dump ship's entire track history